Time;durP1;ratioP1;P1;durP2;ratioP2;P2;SDS_P1;SDS_P2;PMS_P1;PMS_P2;Temp;Humidity;BMP_temperature;BMP_pressure;BME280_temperature;BME280_humidity;BME280_pressure;Samples;Min_cycle;Max_cycle;Signal;HPM_P1;HPM_P2
2022/04/28 00:02:07;;;;;;;11.20;5.60;;;;;;;8.11;64.29;100134.97;109356;1273;139140;-58
2022/04/28 00:04:36;;;;;;;9.90;5.10;;;;;;;8.14;64.33;100132.77;109451;1272;22560;-58
2022/04/28 00:07:06;;;;;;;8.20;4.80;;;;;;;8.14;64.38;100134.80;109205;1274;138580;-58
2022/04/28 00:09:35;;;;;;;8.50;4.90;;;;;;;8.13;64.47;100136.77;109470;1273;22382;-58
2022/04/28 00:12:06;;;;;;;9.30;6.10;;;;;;;8.08;64.46;100132.38;109414;1273;23184;-58
2022/04/28 00:14:34;;;;;;;8.10;4.80;;;;;;;8.07;64.48;100138.61;109332;1273;137226;-58
2022/04/28 00:17:03;;;;;;;11.10;3.60;;;;;;;8.03;63.86;100134.11;109469;1273;22441;-58
2022/04/28 00:19:31;;;;;;;7.30;3.00;;;;;;;8.06;63.09;100136.38;109391;1273;137447;-58
2022/04/28 00:21:59;;;;;;;5.30;3.00;;;;;;;8.12;62.55;100136.47;109471;1272;22406;-58
2022/04/28 00:24:28;;;;;;;9.00;3.50;;;;;;;8.18;62.29;100132.68;109388;1273;23600;-58
2022/04/28 00:26:58;;;;;;;5.20;2.80;;;;;;;8.25;61.88;100133.20;109353;1273;137249;-58
2022/04/28 00:29:26;;;;;;;6.20;2.80;;;;;;;8.31;61.79;100132.79;109391;1273;23079;-58
2022/04/28 00:31:55;;;;;;;4.40;2.20;;;;;;;8.37;61.27;100132.77;109335;1273;137503;-58
2022/04/28 00:34:24;;;;;;;4.00;2.10;;;;;;;8.42;61.41;100132.73;109433;1273;23596;-58
2022/04/28 00:36:53;;;;;;;5.30;2.80;;;;;;;8.46;61.04;100134.83;109370;1273;138870;-58
2022/04/28 00:39:21;;;;;;;5.40;3.00;;;;;;;8.50;60.98;100133.36;109430;1271;22551;-58
2022/04/28 00:41:50;;;;;;;4.10;2.50;;;;;;;8.51;61.11;100133.95;109460;1273;22428;-57
2022/04/28 00:44:20;;;;;;;5.30;2.90;;;;;;;8.55;60.86;100140.41;109229;1273;138366;-58
2022/04/28 00:46:48;;;;;;;8.70;2.90;;;;;;;8.56;61.18;100134.89;109356;1274;22615;-58
2022/04/28 00:52:03;;;;;;;5.10;2.50;;;;;;;8.46;61.65;100142.21;109466;1273;22554;-58
2022/04/28 00:54:34;;;;;;;5.70;2.60;;;;;;;8.38;61.83;100141.15;109345;1273;22493;-58
2022/04/28 00:57:03;;;;;;;4.10;2.40;;;;;;;8.30;62.27;100141.27;109212;1273;138610;-58
2022/04/28 00:59:32;;;;;;;5.70;2.40;;;;;;;8.21;62.58;100139.38;109443;1273;22407;-58
2022/04/28 01:02:01;;;;;;;4.40;2.30;;;;;;;8.11;62.68;100138.82;109089;1273;137995;-58
2022/04/28 01:04:39;;;;;;;4.30;2.30;;;;;;;8.01;63.10;100142.19;109330;1274;22403;-58
2022/04/28 01:07:09;;;;;;;4.60;2.40;;;;;;;7.92;63.22;100139.16;109203;1273;137412;-58
2022/04/28 01:09:39;;;;;;;5.60;2.10;;;;;;;7.80;63.64;100144.35;109316;1274;22892;-58
2022/04/28 01:12:14;;;;;;;3.80;2.40;;;;;;;7.69;63.99;100145.73;109272;1274;22465;-58
2022/04/28 01:14:47;;;;;;;4.40;2.40;;;;;;;7.60;64.37;100147.17;109088;1273;138177;-57
2022/04/28 01:17:16;;;;;;;5.40;2.00;;;;;;;7.55;64.31;100143.17;109430;1273;23282;-57
2022/04/28 01:19:51;;;;;;;4.40;2.20;;;;;;;7.49;64.50;100145.11;109048;1274;137998;-57
2022/04/28 01:22:20;;;;;;;3.10;2.30;;;;;;;7.43;64.48;100143.73;109292;1273;22449;-58
2022/04/28 01:24:59;;;;;;;4.00;2.30;;;;;;;7.40;64.97;100143.30;109315;1273;138246;-57
2022/04/28 01:27:29;;;;;;;3.50;2.10;;;;;;;7.38;65.21;100142.65;109172;1274;22463;-62
2022/04/28 01:29:58;;;;;;;3.70;2.10;;;;;;;7.36;65.34;100147.67;109344;1273;22448;-57
2022/04/28 01:32:32;;;;;;;5.40;2.70;;;;;;;7.36;65.31;100148.59;109225;1274;138864;-57
2022/04/28 01:35:00;;;;;;;4.70;2.90;;;;;;;7.34;65.49;100146.88;109344;1273;22439;-57
2022/04/28 01:37:30;;;;;;;5.60;2.20;;;;;;;7.31;65.83;100146.55;109220;1273;137786;-57
2022/04/28 01:40:06;;;;;;;2.70;1.80;;;;;;;7.27;65.61;100141.74;109343;1273;22576;-57
2022/04/28 01:42:35;;;;;;;4.50;1.70;;;;;;;7.20;66.29;100140.02;109469;1273;22441;-57
2022/04/28 01:45:06;;;;;;;3.20;2.20;;;;;;;7.18;66.30;100142.95;109103;1275;137100;-57
2022/04/28 01:47:36;;;;;;;3.50;2.20;;;;;;;7.12;66.04;100141.79;109347;1273;22229;-58
2022/04/28 01:50:22;;;;;;;4.20;1.80;;;;;;;7.05;66.30;100140.72;109185;1273;137191;-57
2022/04/28 01:58:29;;;;;;;4.20;2.40;;;;;;;6.95;66.90;100137.42;101817;1309;545090;-57
2022/04/28 02:01:16;;;;;;;3.30;2.10;;;;;;;6.89;67.02;100140.59;103915;1286;137055;-57
2022/04/28 02:03:44;;;;;;;2.60;2.00;;;;;;;6.87;67.31;100141.89;107969;1287;24086;-57
2022/04/28 02:06:12;;;;;;;2.70;1.80;;;;;;;6.85;67.47;100144.23;108947;1279;22483;-57
2022/04/28 02:08:40;;;;;;;4.40;1.50;;;;;;;6.84;67.99;100139.91;108859;1279;139171;-57
2022/04/28 02:11:14;;;;;;;2.50;1.60;;;;;;;6.83;68.09;100140.41;108492;1280;263912;-58
2022/04/28 02:14:07;;;;;;;3.50;1.90;;;;;;;6.83;68.27;100143.45;108940;1277;138493;-58
2022/04/28 02:16:55;;;;;;;4.80;1.70;;;;;;;6.83;68.77;100139.99;108741;1279;22405;-58
2022/04/28 02:19:27;;;;;;;3.00;1.80;;;;;;;6.85;69.10;100141.90;108858;1279;137350;-58
2022/04/28 02:21:56;;;;;;;3.70;2.10;;;;;;;6.86;69.09;100137.90;109066;1278;22513;-60
2022/04/28 02:24:28;;;;;;;3.90;1.90;;;;;;;6.88;69.37;100143.48;109254;1277;23319;-58
2022/04/28 02:26:56;;;;;;;3.00;1.80;;;;;;;6.88;69.54;100140.84;108998;1277;138028;-57
2022/04/28 02:29:24;;;;;;;4.40;2.30;;;;;;;6.88;69.96;100142.34;109239;1277;22227;-58
2022/04/28 02:31:52;;;;;;;2.80;1.90;;;;;;;6.88;69.87;100143.48;108921;1277;136890;-57
2022/04/28 02:34:21;;;;;;;3.30;2.30;;;;;;;6.89;69.86;100145.68;109167;1277;22241;-58
2022/04/28 02:36:51;;;;;;;3.70;2.00;;;;;;;6.91;69.89;100142.50;109074;1277;137454;-58
2022/04/28 02:39:20;;;;;;;3.10;1.90;;;;;;;6.94;70.04;100142.70;108997;1280;22558;-57
2022/04/28 02:41:50;;;;;;;3.30;1.90;;;;;;;6.94;70.38;100141.58;109200;1277;22406;-57
2022/04/28 02:44:18;;;;;;;2.70;1.80;;;;;;;6.98;70.34;100145.35;108953;1277;138544;-57
2022/04/28 02:46:46;;;;;;;4.00;2.40;;;;;;;7.00;70.74;100146.59;109035;1278;22499;-58
2022/04/28 02:49:17;;;;;;;4.00;2.10;;;;;;;7.02;70.69;100151.16;108850;1279;138870;-57
2022/04/28 02:51:46;;;;;;;4.90;3.00;;;;;;;7.05;70.10;100147.86;109154;1277;22228;-58
2022/04/28 02:54:14;;;;;;;5.50;2.50;;;;;;;7.10;69.40;100146.21;109105;1278;22466;-58
2022/04/28 02:56:47;;;;;;;5.50;1.80;;;;;;;7.16;69.81;100148.81;105997;1278;137986;-57
2022/04/28 02:59:17;;;;;;;2.60;1.70;;;;;;;7.19;69.94;100152.00;104667;1277;22585;-57
2022/04/28 03:01:47;;;;;;;2.60;1.80;;;;;;;7.22;69.81;100150.63;104594;1277;138916;-57
2022/04/28 03:04:16;;;;;;;3.20;2.10;;;;;;;7.24;70.18;100150.48;104583;1278;23981;-56
2022/04/28 03:12:18;;;;;;;4.70;1.90;;;;;;;7.26;70.29;100152.39;109115;1277;22717;-57
2022/04/28 03:15:13;;;;;;;3.70;2.10;;;;;;;7.26;70.61;100157.11;108850;1277;138749;-57
2022/04/28 03:17:41;;;;;;;2.80;1.90;;;;;;;7.27;70.69;100158.26;108992;1277;22480;-57
2022/04/28 03:20:10;;;;;;;2.60;1.80;;;;;;;7.27;70.72;100164.81;108938;1277;138636;-57
2022/04/28 03:22:39;;;;;;;3.80;1.90;;;;;;;7.29;70.73;100167.96;109153;1277;22428;-57
2022/04/28 03:25:10;;;;;;;5.70;2.30;;;;;;;7.29;70.23;100166.72;108886;1277;137372;-57
2022/04/28 03:27:38;;;;;;;3.10;2.20;;;;;;;7.36;70.42;100174.07;109012;1277;22441;-57
2022/04/28 03:30:09;;;;;;;4.20;2.00;;;;;;;7.40;70.12;100177.25;109111;1277;23237;-57
2022/04/28 03:32:56;;;;;;;5.40;2.20;;;;;;;7.40;70.07;100166.79;108963;1277;137368;-57
2022/04/28 03:35:24;;;;;;;4.50;2.00;;;;;;;7.47;70.04;100177.21;109045;1277;22433;-57
2022/04/28 03:37:58;;;;;;;4.90;2.60;;;;;;;7.51;70.06;100170.55;108975;1277;139023;-57
2022/04/28 03:40:28;;;;;;;2.60;1.80;;;;;;;7.52;70.26;100170.30;109011;1277;22431;-57
2022/04/28 03:42:57;;;;;;;4.90;1.80;;;;;;;7.53;69.82;100175.34;109040;1277;139148;-57
2022/04/28 03:45:25;;;;;;;4.70;1.90;;;;;;;7.58;69.30;100176.73;109112;1277;22426;-57
2022/04/28 03:47:53;;;;;;;2.70;1.90;;;;;;;7.63;68.98;100177.47;109118;1277;23604;-57
2022/04/28 03:50:22;;;;;;;3.10;1.90;;;;;;;7.73;68.68;100184.44;108927;1277;137826;-57
2022/04/28 03:52:50;;;;;;;2.10;1.60;;;;;;;7.87;68.59;100181.12;109008;1277;22429;-57
2022/04/28 03:55:18;;;;;;;2.30;1.50;;;;;;;8.01;68.31;100174.25;109015;1277;139394;-57
2022/04/28 03:57:47;;;;;;;5.40;1.60;;;;;;;8.24;67.99;100183.35;109102;1277;22429;-57
2022/04/28 04:00:15;;;;;;;2.30;1.60;;;;;;;8.42;67.85;100184.72;109135;1276;23225;-57
2022/04/28 04:02:47;;;;;;;3.60;1.60;;;;;;;8.65;67.69;100188.18;108880;1278;138364;-58
2022/04/28 04:05:16;;;;;;;6.20;1.70;;;;;;;8.82;67.15;100188.73;108921;1277;23053;-58
2022/04/28 04:07:45;;;;;;;3.20;1.90;;;;;;;9.01;66.70;100194.28;104638;1277;137911;-57
2022/04/28 04:10:33;;;;;;;6.90;2.00;;;;;;;9.19;66.32;100199.75;104608;1280;23961;-57
2022/04/28 04:13:03;;;;;;;3.90;1.50;;;;;;;9.37;65.71;100208.98;104576;1277;137512;-57
2022/04/28 04:15:32;;;;;;;4.90;1.70;;;;;;;9.50;64.91;100210.42;104760;1277;22657;-57
2022/04/28 04:18:02;;;;;;;3.40;2.00;;;;;;;9.62;64.37;100216.27;109213;1277;23522;-57
2022/04/28 04:20:41;;;;;;;5.60;1.70;;;;;;;9.74;63.85;100219.19;109193;1274;137554;-58
2022/04/28 04:23:14;;;;;;;5.80;2.00;;;;;;;9.83;63.28;100227.48;109307;1274;22421;-57
2022/04/28 04:25:46;;;;;;;3.00;1.70;;;;;;;9.91;63.02;100228.23;109244;1274;137465;-57
2022/04/28 04:28:20;;;;;;;3.40;2.10;;;;;;;10.01;62.44;100225.88;109199;1274;22511;-57
2022/04/28 04:34:20;;;;;;;2.70;1.70;;;;;;;10.31;61.18;100225.81;109042;1275;23673;-57
2022/04/28 04:36:49;;;;;;;2.90;1.90;;;;;;;10.44;60.97;100222.46;106348;1276;25373;-57
2022/04/28 04:39:17;;;;;;;2.20;1.60;;;;;;;10.66;60.40;100224.52;109211;1274;137162;-58
2022/04/28 04:41:46;;;;;;;2.50;1.80;;;;;;;10.96;59.77;100223.21;109322;1274;22400;-58
2022/04/28 04:44:15;;;;;;;2.70;1.60;;;;;;;11.29;59.02;100220.43;109301;1274;138069;-58
2022/04/28 04:46:46;;;;;;;4.10;1.70;;;;;;;11.63;58.20;100220.74;109332;1274;22238;-58
2022/04/28 04:49:24;;;;;;;3.40;1.80;;;;;;;11.98;57.02;100216.19;109296;1274;138457;-58
2022/04/28 04:52:10;;;;;;;3.00;1.80;;;;;;;12.28;56.08;100217.33;109240;1274;22529;-58
2022/04/28 04:55:19;;;;;;;2.50;1.70;;;;;;;12.42;55.15;100217.54;109166;1274;137379;-59
2022/04/28 04:57:58;;;;;;;2.90;2.00;;;;;;;12.53;54.14;100215.93;109334;1274;22476;-59
2022/04/28 05:00:27;;;;;;;3.50;2.10;;;;;;;12.71;53.44;100222.45;109212;1277;22438;-59
2022/04/28 05:03:16;;;;;;;1.80;1.60;;;;;;;12.93;52.57;100226.30;109196;1275;138406;-59
2022/04/28 05:06:03;;;;;;;3.10;2.10;;;;;;;13.14;52.02;100230.18;107750;1274;24262;-58
2022/04/28 05:09:08;;;;;;;2.60;1.90;;;;;;;13.40;51.43;100234.44;104868;1274;137300;-58
2022/04/28 05:11:39;;;;;;;2.10;1.60;;;;;;;13.52;50.79;100235.94;104989;1275;24138;-57
2022/04/28 05:14:11;;;;;;;2.50;1.80;;;;;;;13.59;50.53;100240.86;104888;1274;142253;-58
2022/04/28 05:17:00;;;;;;;2.20;2.00;;;;;;;13.54;50.02;100239.72;105005;1274;24101;-56
2022/04/28 05:19:49;;;;;;;4.50;2.20;;;;;;;13.40;50.36;100239.86;104843;1274;138522;-57
2022/04/28 05:22:36;;;;;;;3.70;2.60;;;;;;;13.27;50.62;100239.08;104942;1274;25100;-57
2022/04/28 05:25:45;;;;;;;4.40;2.10;;;;;;;13.14;50.88;100248.12;108890;1274;139450;-58
2022/04/28 05:28:45;;;;;;;5.70;2.30;;;;;;;12.97;50.50;100252.02;109082;1274;22496;-58
2022/04/28 05:31:35;;;;;;;3.30;2.40;;;;;;;12.75;50.80;100245.63;109275;1274;138736;-58
2022/04/28 05:34:30;;;;;;;3.90;2.30;;;;;;;12.53;51.01;100247.73;109338;1273;22468;-58
2022/04/28 05:37:02;;;;;;;4.50;2.90;;;;;;;12.38;51.69;100247.49;105826;1275;137764;-58
2022/04/28 05:39:32;;;;;;;2.40;2.00;;;;;;;12.28;51.77;100247.89;105028;1274;22605;-57
2022/04/28 05:42:04;;;;;;;3.30;2.20;;;;;;;12.18;51.76;100249.99;105014;1274;24008;-57
2022/04/28 05:47:22;;;;;;;6.20;2.00;;;;;;;12.02;52.19;100249.20;109269;1274;22505;-57
2022/04/28 05:49:50;;;;;;;5.40;2.30;;;;;;;11.97;52.00;100248.90;109240;1274;137408;-58
2022/04/28 05:52:24;;;;;;;7.60;2.90;;;;;;;11.91;52.35;100252.26;109501;1273;22589;-57
2022/04/28 05:54:53;;;;;;;6.90;2.60;;;;;;;11.85;52.64;100250.50;109460;1274;23102;-58
2022/04/28 05:57:21;;;;;;;3.10;2.50;;;;;;;11.79;52.91;100246.90;109297;1274;139007;-58
2022/04/28 05:59:53;;;;;;;4.00;1.80;;;;;;;11.75;53.47;100252.27;109411;1274;23117;-57
2022/04/28 06:02:40;;;;;;;3.30;2.10;;;;;;;11.72;53.59;100261.11;109338;1274;138008;-57
2022/04/28 06:05:13;;;;;;;5.50;2.00;;;;;;;11.73;53.63;100265.83;109331;1274;23283;-58
2022/04/28 06:07:43;;;;;;;2.60;1.70;;;;;;;11.75;52.98;100267.68;109241;1274;138621;-57
2022/04/28 06:10:19;;;;;;;3.90;1.60;;;;;;;11.81;52.71;100272.39;109375;1274;23128;-58
2022/04/28 06:12:52;;;;;;;2.30;1.80;;;;;;;11.91;52.80;100269.67;109391;1274;22501;-58
2022/04/28 06:15:46;;;;;;;3.20;2.00;;;;;;;12.08;51.54;100267.75;108236;1274;23823;-58
2022/04/28 06:18:46;;;;;;;5.10;1.70;;;;;;;12.21;50.84;100266.98;108017;1274;23597;-58
2022/04/28 06:21:33;;;;;;;3.70;2.00;;;;;;;12.34;50.90;100269.58;109405;1273;138716;-59
2022/04/28 06:24:01;;;;;;;6.20;1.60;;;;;;;12.50;49.22;100269.58;109450;1273;22521;-59
2022/04/28 06:26:30;;;;;;;6.00;1.50;;;;;;;12.66;48.20;100263.28;109240;1274;139436;-59
2022/04/28 06:29:00;;;;;;;1.60;1.20;;;;;;;12.79;46.67;100266.73;109388;1274;22443;-58
2022/04/28 06:31:30;;;;;;;3.40;1.40;;;;;;;12.89;45.73;100269.04;109283;1274;137754;-59
2022/04/28 06:34:21;;;;;;;3.30;1.60;;;;;;;12.95;45.88;100269.89;109287;1274;22830;-59
2022/04/28 06:36:49;;;;;;;2.10;1.30;;;;;;;13.01;45.00;100268.90;109299;1274;22494;-59
2022/04/28 06:39:17;;;;;;;2.90;1.20;;;;;;;13.07;44.56;100274.91;109328;1272;139100;-59
2022/04/28 06:41:46;;;;;;;2.00;1.20;;;;;;;13.14;43.49;100274.41;109253;1274;22431;-59
2022/04/28 06:44:22;;;;;;;4.10;1.20;;;;;;;13.18;42.66;100275.27;109171;1274;137500;-58
2022/04/28 06:47:09;;;;;;;1.60;1.00;;;;;;;13.22;42.14;100276.25;105759;1274;22534;-58
2022/04/28 06:49:40;;;;;;;2.60;0.90;;;;;;;13.28;41.38;100283.48;104856;1274;137818;-58
2022/04/28 06:52:27;;;;;;;1.10;0.80;;;;;;;13.35;40.29;100281.30;109478;1274;22428;-59
2022/04/28 06:55:12;;;;;;;2.00;1.00;;;;;;;13.39;39.10;100281.86;109297;1274;23726;-59
2022/04/28 06:57:43;;;;;;;3.00;1.80;;;;;;;13.40;39.66;100286.96;109237;1273;138279;-58
2022/04/28 07:00:21;;;;;;;1.50;1.00;;;;;;;13.43;40.09;100287.36;109379;1274;23405;-58
2022/04/28 07:02:50;;;;;;;3.20;1.30;;;;;;;13.50;40.20;100291.60;109250;1274;138710;-58
2022/04/28 07:05:21;;;;;;;4.20;1.10;;;;;;;13.60;39.44;100294.48;109459;1273;22441;-58
2022/04/28 07:07:51;;;;;;;1.60;1.10;;;;;;;13.68;38.70;100294.80;109289;1273;138862;-58
2022/04/28 07:10:25;;;;;;;3.80;1.20;;;;;;;13.74;37.62;100295.98;109410;1274;22575;-58
2022/04/28 07:12:53;;;;;;;3.00;1.40;;;;;;;13.73;38.21;100297.35;109391;1274;22441;-58
2022/04/28 07:15:59;;;;;;;6.10;1.10;;;;;;;13.67;38.63;100292.16;109353;1274;137473;-58
2022/04/28 07:18:41;;;;;;;2.50;1.10;;;;;;;13.66;38.02;100292.80;109313;1274;22461;-58
2022/04/28 07:21:14;;;;;;;2.90;1.00;;;;;;;13.67;38.42;100296.70;109240;1274;137999;-59
2022/04/28 07:23:44;;;;;;;1.30;0.90;;;;;;;13.66;37.72;100300.54;109257;1274;22430;-59
2022/04/28 07:26:12;;;;;;;2.40;1.60;;;;;;;13.67;37.96;100302.17;108997;1276;138292;-59
2022/04/28 07:28:41;;;;;;;4.70;1.30;;;;;;;13.65;37.09;100301.23;109318;1274;22493;-58
2022/04/28 07:31:32;;;;;;;1.70;1.30;;;;;;;13.64;38.10;100303.63;109385;1274;22431;-58
2022/04/28 07:34:15;;;;;;;2.50;1.20;;;;;;;13.61;38.69;100305.88;109417;1273;138349;-58
2022/04/28 07:37:02;;;;;;;1.60;1.20;;;;;;;13.55;38.92;100303.20;109349;1274;22434;-58
2022/04/28 07:39:59;;;;;;;2.60;1.10;;;;;;;13.49;40.10;100305.98;109386;1272;138608;-58
2022/04/28 07:42:40;;;;;;;2.60;1.30;;;;;;;13.44;40.38;100306.69;109341;1274;22402;-58
2022/04/28 07:45:10;;;;;;;2.60;1.50;;;;;;;13.47;40.88;100307.21;109274;1272;138340;-58
2022/04/28 07:47:39;;;;;;;2.80;1.60;;;;;;;13.52;41.42;100310.24;109331;1273;22580;-58
2022/04/28 07:50:14;;;;;;;4.60;1.60;;;;;;;13.59;41.12;100314.35;109324;1274;138429;-58
2022/04/28 07:52:44;;;;;;;5.70;1.40;;;;;;;13.64;40.96;100313.91;109487;1273;22425;-58
2022/04/28 07:55:14;;;;;;;2.60;1.70;;;;;;;13.69;40.77;100304.88;109334;1274;22464;-58
2022/04/28 07:57:43;;;;;;;4.50;1.50;;;;;;;13.73;40.57;100310.92;109411;1273;139298;-58
2022/04/28 08:00:18;;;;;;;3.80;1.90;;;;;;;13.78;40.65;100307.36;109547;1272;22450;-57
2022/04/28 08:02:49;;;;;;;2.80;1.40;;;;;;;13.82;40.92;100311.19;109345;1273;137543;-58
2022/04/28 08:05:20;;;;;;;2.20;1.40;;;;;;;13.88;41.11;100308.66;109327;1274;23195;-59
2022/04/28 08:07:55;;;;;;;2.00;1.30;;;;;;;13.95;40.40;100311.91;109448;1273;137695;-59
2022/04/28 08:10:25;;;;;;;3.40;1.40;;;;;;;13.98;40.51;100304.16;109537;1273;22507;-59
2022/04/28 08:12:57;;;;;;;2.90;1.50;;;;;;;14.01;40.40;100301.59;109505;1273;23198;-59
2022/04/28 08:15:57;;;;;;;3.30;1.40;;;;;;;14.04;39.67;100302.27;109344;1273;138032;-59
2022/04/28 08:18:35;;;;;;;3.70;1.70;;;;;;;14.06;39.17;100303.02;109391;1273;22463;-59
2022/04/28 08:21:08;;;;;;;4.40;2.00;;;;;;;14.10;38.51;100304.54;109277;1274;139036;-58
2022/04/28 08:23:38;;;;;;;2.40;1.40;;;;;;;14.15;38.12;100310.30;109267;1274;22460;-59
2022/04/28 08:26:08;;;;;;;3.90;1.50;;;;;;;14.20;38.40;100305.30;109274;1274;138778;-59
2022/04/28 08:28:36;;;;;;;2.10;1.40;;;;;;;14.26;38.48;100305.91;109329;1274;22564;-59
2022/04/28 08:31:12;;;;;;;8.10;2.00;;;;;;;14.34;37.77;100304.76;109422;1273;22489;-59
2022/04/28 08:33:48;;;;;;;5.90;1.20;;;;;;;14.39;37.38;100306.56;109256;1274;139473;-59
2022/04/28 08:36:20;;;;;;;2.90;1.20;;;;;;;14.43;37.27;100309.35;109462;1274;22433;-57
2022/04/28 08:38:52;;;;;;;3.10;1.80;;;;;;;14.45;37.36;100305.50;109148;1274;138294;-57
2022/04/28 08:41:34;;;;;;;1.20;1.10;;;;;;;14.48;36.79;100309.54;109314;1274;22421;-58
2022/04/28 08:44:23;;;;;;;2.60;1.40;;;;;;;14.50;37.01;100307.74;109324;1274;138660;-58
2022/04/28 08:47:17;;;;;;;5.60;2.20;;;;;;;14.54;36.82;100303.06;109244;1273;22458;-59
2022/04/28 08:50:10;;;;;;;2.70;1.40;;;;;;;14.56;36.07;100308.11;109190;1274;137669;-57
2022/04/28 08:52:54;;;;;;;2.10;1.50;;;;;;;14.51;36.30;100307.81;109539;1273;22338;-58
2022/04/28 08:55:35;;;;;;;2.10;1.30;;;;;;;14.47;36.35;100303.55;109399;1274;22456;-59
2022/04/28 08:58:04;;;;;;;4.10;1.40;;;;;;;14.45;36.46;100306.71;109241;1274;138785;-57
2022/04/28 09:00:38;;;;;;;6.30;1.70;;;;;;;14.44;36.46;100305.83;109361;1274;22283;-59
2022/04/28 09:03:43;;;;;;;3.80;1.40;;;;;;;14.45;36.40;100305.40;109044;1274;139043;-59
2022/04/28 09:06:51;;;;;;;2.10;1.40;;;;;;;14.45;36.61;100302.38;109313;1274;23518;-58
2022/04/28 09:09:48;;;;;;;2.80;1.40;;;;;;;14.48;36.92;100299.13;109226;1274;137506;-58
2022/04/28 09:12:54;;;;;;;1.70;1.10;;;;;;;14.55;36.63;100300.38;109302;1274;22474;-58
2022/04/28 09:15:33;;;;;;;2.00;1.10;;;;;;;14.60;36.36;100297.64;109346;1274;137353;-58
2022/04/28 09:18:17;;;;;;;5.30;1.40;;;;;;;14.64;36.30;100297.13;109474;1274;22429;-58
2022/04/28 09:20:49;;;;;;;2.70;1.20;;;;;;;14.66;36.08;100294.57;108990;1274;137722;-57
2022/04/28 09:23:21;;;;;;;2.60;1.30;;;;;;;14.65;35.56;100299.11;109219;1275;22378;-57
2022/04/28 09:25:53;;;;;;;4.90;1.50;;;;;;;14.64;36.03;100295.98;109205;1274;138459;-58
2022/04/28 09:28:24;;;;;;;2.40;1.60;;;;;;;14.66;36.08;100296.10;109216;1274;22438;-58
2022/04/28 09:30:55;;;;;;;5.30;1.80;;;;;;;14.68;35.97;100294.70;109510;1273;22264;-58
2022/04/28 09:33:42;;;;;;;4.80;1.80;;;;;;;14.71;36.25;100300.64;109458;1273;137977;-58
2022/04/28 09:36:17;;;;;;;2.40;1.30;;;;;;;14.72;35.77;100299.98;109529;1273;22542;-58
2022/04/28 09:38:58;;;;;;;3.00;1.60;;;;;;;14.65;35.79;100296.38;109370;1273;137880;-59
2022/04/28 09:44:25;;;;;;;2.80;1.70;;;;;;;14.64;36.12;100290.61;109368;1273;138729;-58
2022/04/28 09:47:00;;;;;;;5.00;1.90;;;;;;;14.67;36.03;100294.52;109512;1273;22416;-58
2022/04/28 09:49:28;;;;;;;4.40;1.80;;;;;;;14.66;36.49;100293.30;109438;1273;23511;-58
2022/04/28 09:52:15;;;;;;;3.10;2.30;;;;;;;14.65;36.32;100291.77;109443;1273;138490;-58
2022/04/28 09:55:07;;;;;;;5.40;2.00;;;;;;;14.66;36.91;100287.44;109523;1272;22410;-58
2022/04/28 09:58:05;;;;;;;3.80;2.00;;;;;;;14.70;36.82;100291.64;109249;1273;138081;-58
2022/04/28 10:00:35;;;;;;;6.70;1.70;;;;;;;14.73;37.00;100285.69;109361;1272;23541;-58
2022/04/28 10:03:07;;;;;;;4.90;2.00;;;;;;;14.77;37.73;100280.63;109333;1274;137858;-57
2022/04/28 10:05:38;;;;;;;2.90;1.60;;;;;;;14.84;38.02;100279.63;109460;1273;22439;-58
2022/04/28 10:08:32;;;;;;;3.80;2.30;;;;;;;14.93;36.50;100279.77;109289;1274;139160;-58
2022/04/28 10:11:07;;;;;;;3.00;1.60;;;;;;;14.97;37.30;100277.92;109420;1274;22520;-58
2022/04/28 10:13:35;;;;;;;3.40;2.00;;;;;;;15.07;37.69;100278.73;109280;1274;23333;-58
2022/04/28 10:16:08;;;;;;;4.80;2.40;;;;;;;15.21;37.58;100278.39;109304;1274;139006;-59
2022/04/28 10:18:55;;;;;;;4.60;1.80;;;;;;;15.33;36.62;100274.63;109443;1273;22461;-59
2022/04/28 10:21:46;;;;;;;4.50;1.80;;;;;;;15.36;36.54;100264.09;109320;1274;138600;-59
2022/04/28 10:33:11;;;;;;;5.90;1.90;;;;;;;15.45;36.32;100269.48;108519;1280;138246;-58
2022/04/28 10:35:45;;;;;;;2.90;1.30;;;;;;;15.44;36.57;100266.14;108857;1280;23220;-58
2022/04/28 10:38:20;;;;;;;1.80;1.30;;;;;;;15.44;35.59;100268.40;108889;1279;138087;-58
2022/04/28 10:41:06;;;;;;;2.80;1.70;;;;;;;15.42;36.05;100272.03;108838;1280;22547;-58
2022/04/28 10:43:38;;;;;;;3.00;1.60;;;;;;;15.42;36.67;100265.34;108985;1279;22478;-58
2022/04/28 10:46:07;;;;;;;5.10;1.40;;;;;;;15.47;37.63;100266.52;108833;1280;138630;-58
2022/04/28 10:48:41;;;;;;;3.70;1.90;;;;;;;15.55;38.00;100267.57;109025;1279;22681;-58
2022/04/28 10:51:26;;;;;;;2.70;1.40;;;;;;;15.63;37.49;100270.92;108847;1280;139038;-58
2022/04/28 10:54:10;;;;;;;1.40;1.00;;;;;;;15.70;37.48;100262.82;108984;1280;22593;-58
2022/04/28 10:56:54;;;;;;;2.30;1.20;;;;;;;15.76;36.85;100262.26;108844;1279;139667;-58
2022/04/28 10:59:29;;;;;;;2.00;1.00;;;;;;;15.80;35.86;100259.08;108884;1277;23158;-57
2022/04/28 11:02:17;;;;;;;1.60;1.00;;;;;;;15.81;34.37;100259.19;109045;1275;137650;-57
2022/04/28 11:05:02;;;;;;;1.90;1.20;;;;;;;15.74;33.91;100252.09;109219;1274;22454;-58
2022/04/28 11:07:32;;;;;;;1.00;0.90;;;;;;;15.70;34.71;100249.03;109246;1273;23521;-58
2022/04/28 11:10:07;;;;;;;1.00;0.80;;;;;;;15.72;34.39;100248.91;109408;1273;138049;-58
2022/04/28 11:12:45;;;;;;;1.20;1.10;;;;;;;15.74;33.57;100248.80;109476;1273;23128;-58
2022/04/28 11:15:16;;;;;;;2.20;1.00;;;;;;;15.74;33.28;100246.59;109456;1274;137434;-58
2022/04/28 11:17:45;;;;;;;2.40;1.10;;;;;;;15.73;34.12;100243.84;109548;1273;23137;-58
2022/04/28 11:20:14;;;;;;;1.20;0.90;;;;;;;15.74;34.92;100246.37;109439;1273;137644;-58
2022/04/28 11:23:14;;;;;;;2.00;1.20;;;;;;;15.79;34.52;100244.08;109530;1273;22443;-58
2022/04/28 11:25:44;;;;;;;2.40;1.30;;;;;;;15.82;34.20;100242.77;109338;1274;22473;-58
2022/04/28 11:28:12;;;;;;;6.90;1.30;;;;;;;15.83;34.70;100237.32;109348;1274;138668;-58
2022/04/28 11:30:43;;;;;;;2.10;1.30;;;;;;;15.87;35.16;100231.98;109411;1274;23126;-58
2022/04/28 11:33:13;;;;;;;2.80;0.90;;;;;;;15.93;34.98;100227.52;109356;1273;137646;-59
2022/04/28 11:35:42;;;;;;;4.30;1.20;;;;;;;15.98;35.27;100227.80;109565;1274;22371;-58
2022/04/28 11:38:12;;;;;;;2.80;1.30;;;;;;;16.05;34.71;100226.46;109462;1273;139766;-58
2022/04/28 11:40:44;;;;;;;2.00;1.20;;;;;;;16.09;34.98;100221.85;109497;1273;22468;-58
2022/04/28 11:43:14;;;;;;;2.40;1.30;;;;;;;16.11;34.02;100223.77;109537;1274;22423;-58
2022/04/28 11:45:48;;;;;;;3.00;1.70;;;;;;;16.09;34.56;100215.58;109458;1273;137890;-58
2022/04/28 11:48:17;;;;;;;4.40;1.40;;;;;;;16.12;35.39;100211.84;109420;1274;23272;-58
2022/04/28 11:50:47;;;;;;;2.40;1.40;;;;;;;16.19;35.84;100208.45;109361;1274;137685;-58
2022/04/28 11:53:16;;;;;;;2.90;1.60;;;;;;;16.24;34.74;100209.02;109457;1274;22467;-59
2022/04/28 11:55:48;;;;;;;2.20;1.30;;;;;;;16.27;34.54;100210.66;109455;1274;23401;-58
2022/04/28 11:58:18;;;;;;;2.40;1.10;;;;;;;16.27;34.68;100207.20;109347;1273;138461;-58
2022/04/28 12:00:46;;;;;;;3.70;1.40;;;;;;;16.29;34.73;100206.09;109573;1274;22403;-59
2022/04/28 12:03:27;;;;;;;1.90;1.10;;;;;;;16.32;34.25;100202.92;109437;1273;137899;-58
2022/04/28 12:05:56;;;;;;;3.50;1.50;;;;;;;16.33;34.98;100200.66;109494;1273;23215;-58
2022/04/28 12:08:28;;;;;;;5.60;1.70;;;;;;;16.35;35.12;100200.00;109327;1273;137774;-58
2022/04/28 12:19:27;;;;;;;3.60;2.20;;;;;;;16.15;35.26;100202.48;109518;1272;22399;-58
2022/04/28 12:22:03;;;;;;;3.80;1.80;;;;;;;16.07;35.10;100197.16;109190;1274;137667;-58
2022/04/28 12:24:34;;;;;;;5.30;1.80;;;;;;;15.99;35.31;100199.55;109304;1274;22440;-58
2022/04/28 12:27:10;;;;;;;3.30;1.70;;;;;;;15.96;35.47;100198.23;109189;1274;138454;-58
2022/04/28 12:29:52;;;;;;;3.40;1.70;;;;;;;15.97;35.91;100197.90;109316;1275;22526;-58
2022/04/28 12:32:23;;;;;;;3.00;2.00;;;;;;;15.99;35.54;100197.25;109241;1274;138246;-59
2022/04/28 12:35:19;;;;;;;3.90;1.90;;;;;;;15.98;35.15;100195.98;109333;1274;22568;-59